sensor_id;sensor_type;location;lat;lon;timestamp;P1;durP1;ratioP1;P2;durP2;ratioP2
20743;SDS011;56303;52.160;-0.428;2023-09-19T00:02:05;4.67;;;2.20;;
20743;SDS011;56303;52.160;-0.428;2023-09-19T00:04:33;8.17;;;3.00;;
20743;SDS011;56303;52.160;-0.428;2023-09-19T00:06:59;7.93;;;2.60;;
20743;SDS011;56303;52.160;-0.428;2023-09-19T00:09:28;6.93;;;2.20;;
20743;SDS011;56303;52.160;-0.428;2023-09-19T00:11:56;6.10;;;2.07;;
20743;SDS011;56303;52.160;-0.428;2023-09-19T00:14:24;6.00;;;2.13;;
20743;SDS011;56303;52.160;-0.428;2023-09-19T00:16:51;4.23;;;2.13;;
20743;SDS011;56303;52.160;-0.428;2023-09-19T00:19:18;9.03;;;2.63;;
20743;SDS011;56303;52.160;-0.428;2023-09-19T00:21:45;8.83;;;2.60;;
20743;SDS011;56303;52.160;-0.428;2023-09-19T00:24:13;6.13;;;2.90;;
20743;SDS011;56303;52.160;-0.428;2023-09-19T00:26:40;6.73;;;2.30;;
20743;SDS011;56303;52.160;-0.428;2023-09-19T00:29:07;7.90;;;2.33;;
20743;SDS011;56303;52.160;-0.428;2023-09-19T00:31:35;5.90;;;2.40;;
20743;SDS011;56303;52.160;-0.428;2023-09-19T00:34:04;5.40;;;2.20;;
20743;SDS011;56303;52.160;-0.428;2023-09-19T00:36:30;4.33;;;1.80;;
20743;SDS011;56303;52.160;-0.428;2023-09-19T00:38:57;6.77;;;2.37;;
20743;SDS011;56303;52.160;-0.428;2023-09-19T00:41:24;8.23;;;2.33;;
20743;SDS011;56303;52.160;-0.428;2023-09-19T00:43:51;4.70;;;1.97;;
20743;SDS011;56303;52.160;-0.428;2023-09-19T00:46:18;6.23;;;2.33;;
20743;SDS011;56303;52.160;-0.428;2023-09-19T00:48:45;6.63;;;2.80;;
20743;SDS011;56303;52.160;-0.428;2023-09-19T00:51:12;7.40;;;2.07;;
20743;SDS011;56303;52.160;-0.428;2023-09-19T00:53:40;5.10;;;2.37;;
20743;SDS011;56303;52.160;-0.428;2023-09-19T00:56:12;5.77;;;2.83;;
20743;SDS011;56303;52.160;-0.428;2023-09-19T00:58:41;8.63;;;3.67;;
20743;SDS011;56303;52.160;-0.428;2023-09-19T01:01:08;7.80;;;2.80;;
20743;SDS011;56303;52.160;-0.428;2023-09-19T01:03:36;11.60;;;2.40;;
20743;SDS011;56303;52.160;-0.428;2023-09-19T01:06:03;6.73;;;2.63;;
20743;SDS011;56303;52.160;-0.428;2023-09-19T01:08:30;8.87;;;3.23;;
20743;SDS011;56303;52.160;-0.428;2023-09-19T01:11:06;8.73;;;2.67;;
20743;SDS011;56303;52.160;-0.428;2023-09-19T01:13:43;8.37;;;2.93;;
20743;SDS011;56303;52.160;-0.428;2023-09-19T01:19:07;9.27;;;2.80;;
20743;SDS011;56303;52.160;-0.428;2023-09-19T01:25:05;13.97;;;3.00;;
20743;SDS011;56303;52.160;-0.428;2023-09-19T01:30:08;7.93;;;3.17;;
20743;SDS011;56303;52.160;-0.428;2023-09-19T01:32:35;8.53;;;2.87;;
20743;SDS011;56303;52.160;-0.428;2023-09-19T01:35:04;10.00;;;3.30;;
20743;SDS011;56303;52.160;-0.428;2023-09-19T01:37:31;11.83;;;3.40;;
20743;SDS011;56303;52.160;-0.428;2023-09-19T01:39:59;8.03;;;2.57;;
20743;SDS011;56303;52.160;-0.428;2023-09-19T01:48:12;10.57;;;3.20;;
20743;SDS011;56303;52.160;-0.428;2023-09-19T01:50:55;6.53;;;2.70;;
20743;SDS011;56303;52.160;-0.428;2023-09-19T01:53:27;8.20;;;2.90;;
20743;SDS011;56303;52.160;-0.428;2023-09-19T01:56:04;10.73;;;2.90;;
20743;SDS011;56303;52.160;-0.428;2023-09-19T01:58:37;11.10;;;3.50;;
20743;SDS011;56303;52.160;-0.428;2023-09-19T02:01:05;9.60;;;3.27;;
20743;SDS011;56303;52.160;-0.428;2023-09-19T02:03:37;11.63;;;3.07;;
20743;SDS011;56303;52.160;-0.428;2023-09-19T02:06:06;9.27;;;3.93;;
20743;SDS011;56303;52.160;-0.428;2023-09-19T02:08:37;7.87;;;3.10;;
20743;SDS011;56303;52.160;-0.428;2023-09-19T02:11:05;8.90;;;3.43;;
20743;SDS011;56303;52.160;-0.428;2023-09-19T02:13:32;10.97;;;3.53;;
20743;SDS011;56303;52.160;-0.428;2023-09-19T02:15:59;14.23;;;4.00;;
20743;SDS011;56303;52.160;-0.428;2023-09-19T02:18:26;11.63;;;3.87;;
20743;SDS011;56303;52.160;-0.428;2023-09-19T02:20:54;11.00;;;4.07;;
20743;SDS011;56303;52.160;-0.428;2023-09-19T02:23:22;10.90;;;3.20;;
20743;SDS011;56303;52.160;-0.428;2023-09-19T02:25:55;10.20;;;3.93;;
20743;SDS011;56303;52.160;-0.428;2023-09-19T02:28:26;10.97;;;3.70;;
20743;SDS011;56303;52.160;-0.428;2023-09-19T02:30:56;12.13;;;3.90;;
20743;SDS011;56303;52.160;-0.428;2023-09-19T02:33:23;11.53;;;3.47;;
20743;SDS011;56303;52.160;-0.428;2023-09-19T02:35:54;12.07;;;3.70;;
20743;SDS011;56303;52.160;-0.428;2023-09-19T02:38:24;9.83;;;3.50;;
20743;SDS011;56303;52.160;-0.428;2023-09-19T02:40:52;14.30;;;3.87;;
20743;SDS011;56303;52.160;-0.428;2023-09-19T02:43:19;9.40;;;3.20;;
20743;SDS011;56303;52.160;-0.428;2023-09-19T02:45:46;9.63;;;4.13;;
20743;SDS011;56303;52.160;-0.428;2023-09-19T02:48:16;10.27;;;3.63;;
20743;SDS011;56303;52.160;-0.428;2023-09-19T02:50:44;13.40;;;3.77;;
20743;SDS011;56303;52.160;-0.428;2023-09-19T02:53:12;10.13;;;3.57;;
20743;SDS011;56303;52.160;-0.428;2023-09-19T02:55:39;12.30;;;3.87;;
20743;SDS011;56303;52.160;-0.428;2023-09-19T02:58:09;10.10;;;3.17;;
20743;SDS011;56303;52.160;-0.428;2023-09-19T03:00:41;12.17;;;3.77;;
20743;SDS011;56303;52.160;-0.428;2023-09-19T03:03:08;16.13;;;3.50;;
20743;SDS011;56303;52.160;-0.428;2023-09-19T03:05:36;13.87;;;3.97;;
20743;SDS011;56303;52.160;-0.428;2023-09-19T03:08:04;14.43;;;4.87;;
20743;SDS011;56303;52.160;-0.428;2023-09-19T03:10:32;18.47;;;4.57;;
20743;SDS011;56303;52.160;-0.428;2023-09-19T03:12:59;14.50;;;3.87;;
20743;SDS011;56303;52.160;-0.428;2023-09-19T03:15:26;9.80;;;3.30;;
20743;SDS011;56303;52.160;-0.428;2023-09-19T03:17:53;13.83;;;3.90;;
20743;SDS011;56303;52.160;-0.428;2023-09-19T03:20:20;12.93;;;4.70;;
20743;SDS011;56303;52.160;-0.428;2023-09-19T03:22:47;11.20;;;4.33;;
20743;SDS011;56303;52.160;-0.428;2023-09-19T03:25:14;14.13;;;3.93;;
20743;SDS011;56303;52.160;-0.428;2023-09-19T03:27:44;14.93;;;5.07;;
20743;SDS011;56303;52.160;-0.428;2023-09-19T03:30:11;14.23;;;3.87;;
20743;SDS011;56303;52.160;-0.428;2023-09-19T03:32:46;12.33;;;3.90;;
20743;SDS011;56303;52.160;-0.428;2023-09-19T03:35:16;9.63;;;3.30;;
20743;SDS011;56303;52.160;-0.428;2023-09-19T03:37:44;15.90;;;4.40;;
20743;SDS011;56303;52.160;-0.428;2023-09-19T03:40:11;15.33;;;4.33;;
20743;SDS011;56303;52.160;-0.428;2023-09-19T03:42:39;16.53;;;3.80;;
20743;SDS011;56303;52.160;-0.428;2023-09-19T03:45:07;13.20;;;3.80;;
20743;SDS011;56303;52.160;-0.428;2023-09-19T03:47:38;12.87;;;5.00;;
20743;SDS011;56303;52.160;-0.428;2023-09-19T03:50:07;13.97;;;4.07;;
20743;SDS011;56303;52.160;-0.428;2023-09-19T03:52:37;13.33;;;3.60;;
20743;SDS011;56303;52.160;-0.428;2023-09-19T03:55:04;15.37;;;4.47;;
20743;SDS011;56303;52.160;-0.428;2023-09-19T03:57:31;13.90;;;4.17;;
20743;SDS011;56303;52.160;-0.428;2023-09-19T03:59:58;11.17;;;3.80;;
20743;SDS011;56303;52.160;-0.428;2023-09-19T04:02:25;13.47;;;3.63;;
20743;SDS011;56303;52.160;-0.428;2023-09-19T04:04:52;10.63;;;3.90;;
20743;SDS011;56303;52.160;-0.428;2023-09-19T04:07:19;13.63;;;4.70;;
20743;SDS011;56303;52.160;-0.428;2023-09-19T04:09:49;11.77;;;4.27;;
20743;SDS011;56303;52.160;-0.428;2023-09-19T04:12:16;13.73;;;4.27;;
20743;SDS011;56303;52.160;-0.428;2023-09-19T04:14:45;15.60;;;4.20;;
20743;SDS011;56303;52.160;-0.428;2023-09-19T04:17:12;11.03;;;3.93;;
20743;SDS011;56303;52.160;-0.428;2023-09-19T04:19:39;10.07;;;3.77;;
20743;SDS011;56303;52.160;-0.428;2023-09-19T04:22:07;11.67;;;4.03;;
20743;SDS011;56303;52.160;-0.428;2023-09-19T04:24:35;12.87;;;3.77;;
20743;SDS011;56303;52.160;-0.428;2023-09-19T04:27:04;13.93;;;4.03;;
20743;SDS011;56303;52.160;-0.428;2023-09-19T04:29:31;14.30;;;4.00;;
20743;SDS011;56303;52.160;-0.428;2023-09-19T04:31:58;15.33;;;4.37;;
20743;SDS011;56303;52.160;-0.428;2023-09-19T04:34:25;8.30;;;3.10;;
20743;SDS011;56303;52.160;-0.428;2023-09-19T04:36:51;13.20;;;3.73;;
20743;SDS011;56303;52.160;-0.428;2023-09-19T04:39:19;11.67;;;4.03;;
20743;SDS011;56303;52.160;-0.428;2023-09-19T04:41:47;11.80;;;4.10;;
20743;SDS011;56303;52.160;-0.428;2023-09-19T04:44:14;11.40;;;2.73;;
20743;SDS011;56303;52.160;-0.428;2023-09-19T04:46:42;14.23;;;3.60;;
20743;SDS011;56303;52.160;-0.428;2023-09-19T04:49:09;10.90;;;3.43;;
20743;SDS011;56303;52.160;-0.428;2023-09-19T04:51:36;10.77;;;3.50;;
20743;SDS011;56303;52.160;-0.428;2023-09-19T04:54:03;10.40;;;3.67;;
20743;SDS011;56303;52.160;-0.428;2023-09-19T04:56:30;12.17;;;3.73;;
20743;SDS011;56303;52.160;-0.428;2023-09-19T04:58:58;9.53;;;3.23;;
20743;SDS011;56303;52.160;-0.428;2023-09-19T05:01:26;11.83;;;3.50;;
20743;SDS011;56303;52.160;-0.428;2023-09-19T05:03:53;6.87;;;2.60;;
20743;SDS011;56303;52.160;-0.428;2023-09-19T05:06:20;12.23;;;3.73;;
20743;SDS011;56303;52.160;-0.428;2023-09-19T05:08:47;10.37;;;2.90;;
20743;SDS011;56303;52.160;-0.428;2023-09-19T05:11:19;9.23;;;3.00;;
20743;SDS011;56303;52.160;-0.428;2023-09-19T05:13:48;11.43;;;3.47;;
20743;SDS011;56303;52.160;-0.428;2023-09-19T05:16:22;14.60;;;2.90;;
20743;SDS011;56303;52.160;-0.428;2023-09-19T05:18:49;10.17;;;3.10;;
20743;SDS011;56303;52.160;-0.428;2023-09-19T05:21:16;14.07;;;3.70;;
20743;SDS011;56303;52.160;-0.428;2023-09-19T05:23:44;8.77;;;3.57;;
20743;SDS011;56303;52.160;-0.428;2023-09-19T05:26:11;8.73;;;3.30;;
20743;SDS011;56303;52.160;-0.428;2023-09-19T05:28:38;9.60;;;3.10;;
20743;SDS011;56303;52.160;-0.428;2023-09-19T05:31:05;8.93;;;2.80;;
20743;SDS011;56303;52.160;-0.428;2023-09-19T05:33:32;9.77;;;2.93;;
20743;SDS011;56303;52.160;-0.428;2023-09-19T05:35:59;10.10;;;2.97;;
20743;SDS011;56303;52.160;-0.428;2023-09-19T05:38:26;12.03;;;3.77;;
20743;SDS011;56303;52.160;-0.428;2023-09-19T05:40:54;9.07;;;2.77;;
20743;SDS011;56303;52.160;-0.428;2023-09-19T05:43:21;12.37;;;3.43;;
20743;SDS011;56303;52.160;-0.428;2023-09-19T05:45:48;16.97;;;3.17;;
20743;SDS011;56303;52.160;-0.428;2023-09-19T05:48:18;6.73;;;2.87;;
20743;SDS011;56303;52.160;-0.428;2023-09-19T05:50:47;12.23;;;3.30;;
20743;SDS011;56303;52.160;-0.428;2023-09-19T05:53:15;8.23;;;2.50;;
20743;SDS011;56303;52.160;-0.428;2023-09-19T05:55:42;7.83;;;2.90;;
20743;SDS011;56303;52.160;-0.428;2023-09-19T05:58:09;9.20;;;3.00;;
20743;SDS011;56303;52.160;-0.428;2023-09-19T06:00:36;9.73;;;3.13;;
20743;SDS011;56303;52.160;-0.428;2023-09-19T06:03:05;7.53;;;2.60;;
20743;SDS011;56303;52.160;-0.428;2023-09-19T06:05:32;12.30;;;4.53;;
20743;SDS011;56303;52.160;-0.428;2023-09-19T06:07:59;11.07;;;3.03;;
20743;SDS011;56303;52.160;-0.428;2023-09-19T06:10:27;9.70;;;3.30;;
20743;SDS011;56303;52.160;-0.428;2023-09-19T06:12:54;8.30;;;2.50;;
20743;SDS011;56303;52.160;-0.428;2023-09-19T06:15:21;10.43;;;3.27;;
20743;SDS011;56303;52.160;-0.428;2023-09-19T06:17:51;7.40;;;2.27;;
20743;SDS011;56303;52.160;-0.428;2023-09-19T06:20:23;7.30;;;2.93;;
20743;SDS011;56303;52.160;-0.428;2023-09-19T06:22:52;7.40;;;2.53;;
20743;SDS011;56303;52.160;-0.428;2023-09-19T06:25:19;6.10;;;2.10;;
20743;SDS011;56303;52.160;-0.428;2023-09-19T06:27:47;9.20;;;2.90;;
20743;SDS011;56303;52.160;-0.428;2023-09-19T06:30:15;9.40;;;2.57;;
20743;SDS011;56303;52.160;-0.428;2023-09-19T06:32:43;5.50;;;2.33;;
20743;SDS011;56303;52.160;-0.428;2023-09-19T06:35:12;8.00;;;2.67;;
20743;SDS011;56303;52.160;-0.428;2023-09-19T06:37:40;11.00;;;2.47;;
20743;SDS011;56303;52.160;-0.428;2023-09-19T06:40:08;6.87;;;2.63;;
20743;SDS011;56303;52.160;-0.428;2023-09-19T06:42:43;7.93;;;2.70;;
20743;SDS011;56303;52.160;-0.428;2023-09-19T06:45:12;9.67;;;2.40;;
20743;SDS011;56303;52.160;-0.428;2023-09-19T06:47:47;7.20;;;2.80;;
20743;SDS011;56303;52.160;-0.428;2023-09-19T06:50:18;9.03;;;2.87;;
20743;SDS011;56303;52.160;-0.428;2023-09-19T06:52:50;5.13;;;2.50;;
20743;SDS011;56303;52.160;-0.428;2023-09-19T06:55:18;11.07;;;2.77;;
20743;SDS011;56303;52.160;-0.428;2023-09-19T06:57:47;12.00;;;3.57;;
20743;SDS011;56303;52.160;-0.428;2023-09-19T07:00:15;8.47;;;2.37;;
20743;SDS011;56303;52.160;-0.428;2023-09-19T07:02:45;8.80;;;2.87;;
20743;SDS011;56303;52.160;-0.428;2023-09-19T07:05:20;7.37;;;2.67;;
20743;SDS011;56303;52.160;-0.428;2023-09-19T07:07:48;9.73;;;2.33;;
20743;SDS011;56303;52.160;-0.428;2023-09-19T07:10:15;7.80;;;3.03;;
20743;SDS011;56303;52.160;-0.428;2023-09-19T07:12:43;9.20;;;2.40;;
20743;SDS011;56303;52.160;-0.428;2023-09-19T07:15:09;6.00;;;2.13;;
20743;SDS011;56303;52.160;-0.428;2023-09-19T07:17:36;7.73;;;2.60;;
20743;SDS011;56303;52.160;-0.428;2023-09-19T07:20:03;4.90;;;2.20;;
20743;SDS011;56303;52.160;-0.428;2023-09-19T07:22:34;6.67;;;2.57;;
20743;SDS011;56303;52.160;-0.428;2023-09-19T07:25:02;6.97;;;2.50;;
20743;SDS011;56303;52.160;-0.428;2023-09-19T07:27:29;7.47;;;2.47;;
20743;SDS011;56303;52.160;-0.428;2023-09-19T07:29:56;5.30;;;2.23;;
20743;SDS011;56303;52.160;-0.428;2023-09-19T07:32:23;7.57;;;1.90;;
20743;SDS011;56303;52.160;-0.428;2023-09-19T07:34:50;7.27;;;2.70;;
20743;SDS011;56303;52.160;-0.428;2023-09-19T07:37:17;6.37;;;2.20;;
20743;SDS011;56303;52.160;-0.428;2023-09-19T07:39:44;6.47;;;2.63;;
20743;SDS011;56303;52.160;-0.428;2023-09-19T07:42:11;7.70;;;2.37;;
20743;SDS011;56303;52.160;-0.428;2023-09-19T07:44:44;6.50;;;2.60;;
20743;SDS011;56303;52.160;-0.428;2023-09-19T07:47:16;8.83;;;2.93;;
20743;SDS011;56303;52.160;-0.428;2023-09-19T07:49:45;7.97;;;2.40;;
20743;SDS011;56303;52.160;-0.428;2023-09-19T07:52:14;8.37;;;3.17;;
20743;SDS011;56303;52.160;-0.428;2023-09-19T07:54:42;7.20;;;3.10;;
20743;SDS011;56303;52.160;-0.428;2023-09-19T07:57:10;5.30;;;2.83;;
20743;SDS011;56303;52.160;-0.428;2023-09-19T07:59:37;8.20;;;2.40;;
20743;SDS011;56303;52.160;-0.428;2023-09-19T08:02:05;6.93;;;2.83;;
20743;SDS011;56303;52.160;-0.428;2023-09-19T08:04:31;9.37;;;3.77;;
20743;SDS011;56303;52.160;-0.428;2023-09-19T08:07:01;9.33;;;2.97;;
20743;SDS011;56303;52.160;-0.428;2023-09-19T08:09:31;8.87;;;2.80;;
20743;SDS011;56303;52.160;-0.428;2023-09-19T08:11:59;6.90;;;2.73;;
20743;SDS011;56303;52.160;-0.428;2023-09-19T08:14:29;10.50;;;3.53;;
20743;SDS011;56303;52.160;-0.428;2023-09-19T08:16:56;5.93;;;2.80;;
20743;SDS011;56303;52.160;-0.428;2023-09-19T08:19:25;5.93;;;2.80;;
20743;SDS011;56303;52.160;-0.428;2023-09-19T08:21:57;9.70;;;3.67;;
20743;SDS011;56303;52.160;-0.428;2023-09-19T08:24:25;8.30;;;2.80;;
20743;SDS011;56303;52.160;-0.428;2023-09-19T08:26:55;8.17;;;3.23;;
20743;SDS011;56303;52.160;-0.428;2023-09-19T08:29:23;13.23;;;3.97;;
20743;SDS011;56303;52.160;-0.428;2023-09-19T08:31:54;8.80;;;3.80;;
20743;SDS011;56303;52.160;-0.428;2023-09-19T08:34:22;6.57;;;3.53;;
20743;SDS011;56303;52.160;-0.428;2023-09-19T08:36:51;9.30;;;3.70;;
20743;SDS011;56303;52.160;-0.428;2023-09-19T08:39:19;12.53;;;4.17;;
20743;SDS011;56303;52.160;-0.428;2023-09-19T08:41:46;11.17;;;4.00;;
20743;SDS011;56303;52.160;-0.428;2023-09-19T08:44:12;9.70;;;3.73;;
20743;SDS011;56303;52.160;-0.428;2023-09-19T08:46:42;10.07;;;3.97;;
20743;SDS011;56303;52.160;-0.428;2023-09-19T08:49:18;8.30;;;3.67;;
20743;SDS011;56303;52.160;-0.428;2023-09-19T08:54:56;7.70;;;3.73;;
20743;SDS011;56303;52.160;-0.428;2023-09-19T08:57:28;7.17;;;3.57;;
20743;SDS011;56303;52.160;-0.428;2023-09-19T08:59:59;12.10;;;4.37;;
20743;SDS011;56303;52.160;-0.428;2023-09-19T09:02:27;7.47;;;3.83;;
20743;SDS011;56303;52.160;-0.428;2023-09-19T09:04:56;9.20;;;4.13;;
20743;SDS011;56303;52.160;-0.428;2023-09-19T09:07:25;11.47;;;4.80;;
20743;SDS011;56303;52.160;-0.428;2023-09-19T09:09:53;11.67;;;4.93;;
20743;SDS011;56303;52.160;-0.428;2023-09-19T09:12:20;15.33;;;4.90;;
20743;SDS011;56303;52.160;-0.428;2023-09-19T09:14:48;12.17;;;5.00;;
20743;SDS011;56303;52.160;-0.428;2023-09-19T09:17:16;8.77;;;4.50;;
20743;SDS011;56303;52.160;-0.428;2023-09-19T09:19:47;11.80;;;5.47;;
20743;SDS011;56303;52.160;-0.428;2023-09-19T09:22:14;14.13;;;5.37;;
20743;SDS011;56303;52.160;-0.428;2023-09-19T09:27:20;9.23;;;4.50;;
20743;SDS011;56303;52.160;-0.428;2023-09-19T09:29:51;12.20;;;5.20;;
20743;SDS011;56303;52.160;-0.428;2023-09-19T09:32:27;15.20;;;5.47;;
20743;SDS011;56303;52.160;-0.428;2023-09-19T09:35:11;8.93;;;4.40;;
20743;SDS011;56303;52.160;-0.428;2023-09-19T09:37:43;8.60;;;4.13;;
20743;SDS011;56303;52.160;-0.428;2023-09-19T09:40:11;8.17;;;4.80;;
20743;SDS011;56303;52.160;-0.428;2023-09-19T09:42:58;13.87;;;4.63;;
20743;SDS011;56303;52.160;-0.428;2023-09-19T09:45:26;11.83;;;4.77;;
20743;SDS011;56303;52.160;-0.428;2023-09-19T09:48:00;11.30;;;4.43;;
20743;SDS011;56303;52.160;-0.428;2023-09-19T09:50:47;11.23;;;4.40;;
20743;SDS011;56303;52.160;-0.428;2023-09-19T09:53:23;8.43;;;4.07;;
20743;SDS011;56303;52.160;-0.428;2023-09-19T09:56:02;12.90;;;5.00;;
20743;SDS011;56303;52.160;-0.428;2023-09-19T09:58:34;14.93;;;5.73;;
20743;SDS011;56303;52.160;-0.428;2023-09-19T10:01:03;10.10;;;4.53;;
20743;SDS011;56303;52.160;-0.428;2023-09-19T10:03:42;11.90;;;4.57;;
20743;SDS011;56303;52.160;-0.428;2023-09-19T10:06:15;11.47;;;4.63;;
20743;SDS011;56303;52.160;-0.428;2023-09-19T10:09:07;10.87;;;4.17;;
20743;SDS011;56303;52.160;-0.428;2023-09-19T10:14:09;12.17;;;4.73;;
20743;SDS011;56303;52.160;-0.428;2023-09-19T10:16:45;15.57;;;4.80;;
20743;SDS011;56303;52.160;-0.428;2023-09-19T10:22:04;11.33;;;4.10;;
20743;SDS011;56303;52.160;-0.428;2023-09-19T10:24:35;10.87;;;4.00;;
20743;SDS011;56303;52.160;-0.428;2023-09-19T10:27:22;14.03;;;4.70;;
20743;SDS011;56303;52.160;-0.428;2023-09-19T10:29:52;9.53;;;3.53;;
20743;SDS011;56303;52.160;-0.428;2023-09-19T10:32:22;9.57;;;3.80;;
20743;SDS011;56303;52.160;-0.428;2023-09-19T10:34:50;12.27;;;5.20;;
20743;SDS011;56303;52.160;-0.428;2023-09-19T10:37:21;7.83;;;3.27;;
20743;SDS011;56303;52.160;-0.428;2023-09-19T10:39:52;12.03;;;4.50;;
20743;SDS011;56303;52.160;-0.428;2023-09-19T10:42:22;10.07;;;3.50;;
20743;SDS011;56303;52.160;-0.428;2023-09-19T10:44:55;9.00;;;4.53;;
20743;SDS011;56303;52.160;-0.428;2023-09-19T10:47:26;10.70;;;3.87;;
20743;SDS011;56303;52.160;-0.428;2023-09-19T10:49:53;8.80;;;3.70;;
20743;SDS011;56303;52.160;-0.428;2023-09-19T10:52:22;7.80;;;3.30;;
20743;SDS011;56303;52.160;-0.428;2023-09-19T10:54:53;7.20;;;3.10;;
20743;SDS011;56303;52.160;-0.428;2023-09-19T10:57:24;8.50;;;3.40;;
20743;SDS011;56303;52.160;-0.428;2023-09-19T11:00:03;7.57;;;3.20;;
20743;SDS011;56303;52.160;-0.428;2023-09-19T11:05:59;12.00;;;3.87;;
20743;SDS011;56303;52.160;-0.428;2023-09-19T11:08:27;7.60;;;3.27;;
20743;SDS011;56303;52.160;-0.428;2023-09-19T11:10:54;8.37;;;3.63;;
20743;SDS011;56303;52.160;-0.428;2023-09-19T11:13:27;7.93;;;3.30;;
20743;SDS011;56303;52.160;-0.428;2023-09-19T11:26:50;9.10;;;3.67;;
20743;SDS011;56303;52.160;-0.428;2023-09-19T11:29:24;6.10;;;2.90;;
20743;SDS011;56303;52.160;-0.428;2023-09-19T11:31:52;8.07;;;3.57;;
20743;SDS011;56303;52.160;-0.428;2023-09-19T11:37:03;6.53;;;3.33;;
20743;SDS011;56303;52.160;-0.428;2023-09-19T11:39:37;7.33;;;3.53;;
20743;SDS011;56303;52.160;-0.428;2023-09-19T11:48:18;9.83;;;3.07;;
20743;SDS011;56303;52.160;-0.428;2023-09-19T11:50:45;8.07;;;3.33;;
20743;SDS011;56303;52.160;-0.428;2023-09-19T11:53:13;6.67;;;2.87;;
20743;SDS011;56303;52.160;-0.428;2023-09-19T11:55:42;7.90;;;3.10;;
20743;SDS011;56303;52.160;-0.428;2023-09-19T11:58:10;7.67;;;3.13;;
20743;SDS011;56303;52.160;-0.428;2023-09-19T12:00:41;6.87;;;3.30;;
20743;SDS011;56303;52.160;-0.428;2023-09-19T12:03:10;7.40;;;3.07;;
20743;SDS011;56303;52.160;-0.428;2023-09-19T12:05:40;7.53;;;3.60;;
20743;SDS011;56303;52.160;-0.428;2023-09-19T12:08:07;8.63;;;3.20;;
20743;SDS011;56303;52.160;-0.428;2023-09-19T12:10:45;8.07;;;3.23;;
20743;SDS011;56303;52.160;-0.428;2023-09-19T12:13:15;10.67;;;3.73;;
20743;SDS011;56303;52.160;-0.428;2023-09-19T12:15:47;5.23;;;3.10;;
20743;SDS011;56303;52.160;-0.428;2023-09-19T12:18:29;7.57;;;3.87;;
20743;SDS011;56303;52.160;-0.428;2023-09-19T12:20:57;8.97;;;3.10;;
20743;SDS011;56303;52.160;-0.428;2023-09-19T12:23:24;8.03;;;3.27;;
20743;SDS011;56303;52.160;-0.428;2023-09-19T12:25:54;5.80;;;3.10;;
20743;SDS011;56303;52.160;-0.428;2023-09-19T12:28:27;7.30;;;2.90;;
20743;SDS011;56303;52.160;-0.428;2023-09-19T12:31:08;8.13;;;3.30;;
20743;SDS011;56303;52.160;-0.428;2023-09-19T12:33:35;8.03;;;3.17;;
20743;SDS011;56303;52.160;-0.428;2023-09-19T12:36:19;9.03;;;2.73;;
20743;SDS011;56303;52.160;-0.428;2023-09-19T12:38:51;6.63;;;3.27;;
20743;SDS011;56303;52.160;-0.428;2023-09-19T12:41:19;7.50;;;3.10;;
20743;SDS011;56303;52.160;-0.428;2023-09-19T12:43:48;6.43;;;3.00;;
20743;SDS011;56303;52.160;-0.428;2023-09-19T12:46:15;5.40;;;2.27;;
20743;SDS011;56303;52.160;-0.428;2023-09-19T12:51:45;4.30;;;1.93;;
20743;SDS011;56303;52.160;-0.428;2023-09-19T12:54:13;6.63;;;2.60;;
20743;SDS011;56303;52.160;-0.428;2023-09-19T12:56:44;4.17;;;2.00;;
20743;SDS011;56303;52.160;-0.428;2023-09-19T12:59:12;3.73;;;2.07;;
20743;SDS011;56303;52.160;-0.428;2023-09-19T13:01:40;6.70;;;2.30;;
20743;SDS011;56303;52.160;-0.428;2023-09-19T13:04:17;8.63;;;3.30;;
20743;SDS011;56303;52.160;-0.428;2023-09-19T13:06:56;3.87;;;2.40;;
20743;SDS011;56303;52.160;-0.428;2023-09-19T13:09:28;5.90;;;2.37;;
20743;SDS011;56303;52.160;-0.428;2023-09-19T13:12:01;6.17;;;2.27;;
20743;SDS011;56303;52.160;-0.428;2023-09-19T13:14:33;6.77;;;2.70;;
20743;SDS011;56303;52.160;-0.428;2023-09-19T13:17:07;5.93;;;2.40;;
20743;SDS011;56303;52.160;-0.428;2023-09-19T13:19:46;6.50;;;2.73;;
20743;SDS011;56303;52.160;-0.428;2023-09-19T13:22:40;5.07;;;2.07;;
20743;SDS011;56303;52.160;-0.428;2023-09-19T13:25:16;4.87;;;2.20;;
20743;SDS011;56303;52.160;-0.428;2023-09-19T13:30:14;6.27;;;2.00;;
20743;SDS011;56303;52.160;-0.428;2023-09-19T13:32:41;6.43;;;2.30;;
20743;SDS011;56303;52.160;-0.428;2023-09-19T13:35:09;5.03;;;1.97;;
20743;SDS011;56303;52.160;-0.428;2023-09-19T13:37:38;3.50;;;1.80;;
20743;SDS011;56303;52.160;-0.428;2023-09-19T13:40:09;3.90;;;2.07;;
20743;SDS011;56303;52.160;-0.428;2023-09-19T13:42:38;3.40;;;1.80;;
20743;SDS011;56303;52.160;-0.428;2023-09-19T13:45:06;3.17;;;1.80;;
20743;SDS011;56303;52.160;-0.428;2023-09-19T13:47:33;5.93;;;2.07;;
20743;SDS011;56303;52.160;-0.428;2023-09-19T13:50:02;3.27;;;1.70;;
20743;SDS011;56303;52.160;-0.428;2023-09-19T13:52:31;3.33;;;1.80;;
20743;SDS011;56303;52.160;-0.428;2023-09-19T13:54:58;5.10;;;1.73;;
20743;SDS011;56303;52.160;-0.428;2023-09-19T13:57:25;5.07;;;1.87;;
20743;SDS011;56303;52.160;-0.428;2023-09-19T13:59:52;3.90;;;1.90;;
20743;SDS011;56303;52.160;-0.428;2023-09-19T14:02:21;3.70;;;1.70;;
20743;SDS011;56303;52.160;-0.428;2023-09-19T14:04:49;2.97;;;1.33;;
20743;SDS011;56303;52.160;-0.428;2023-09-19T14:07:17;5.07;;;1.70;;
20743;SDS011;56303;52.160;-0.428;2023-09-19T14:09:46;5.27;;;1.53;;
20743;SDS011;56303;52.160;-0.428;2023-09-19T14:12:14;5.73;;;1.77;;
20743;SDS011;56303;52.160;-0.428;2023-09-19T14:14:41;4.20;;;1.57;;
20743;SDS011;56303;52.160;-0.428;2023-09-19T14:17:09;4.23;;;1.80;;
20743;SDS011;56303;52.160;-0.428;2023-09-19T14:19:36;2.93;;;1.50;;
20743;SDS011;56303;52.160;-0.428;2023-09-19T14:22:04;4.07;;;1.53;;
20743;SDS011;56303;52.160;-0.428;2023-09-19T14:24:34;1.20;;;1.07;;
20743;SDS011;56303;52.160;-0.428;2023-09-19T14:27:02;2.60;;;1.50;;
20743;SDS011;56303;52.160;-0.428;2023-09-19T14:29:30;2.97;;;1.30;;
20743;SDS011;56303;52.160;-0.428;2023-09-19T14:31:58;3.57;;;1.40;;
20743;SDS011;56303;52.160;-0.428;2023-09-19T14:34:25;3.23;;;1.37;;
20743;SDS011;56303;52.160;-0.428;2023-09-19T14:36:52;2.30;;;1.30;;
20743;SDS011;56303;52.160;-0.428;2023-09-19T14:39:21;2.67;;;1.40;;
20743;SDS011;56303;52.160;-0.428;2023-09-19T14:41:47;4.00;;;2.03;;
20743;SDS011;56303;52.160;-0.428;2023-09-19T14:44:15;2.57;;;1.63;;
20743;SDS011;56303;52.160;-0.428;2023-09-19T14:46:48;3.60;;;1.73;;
20743;SDS011;56303;52.160;-0.428;2023-09-19T14:49:22;5.23;;;1.70;;
20743;SDS011;56303;52.160;-0.428;2023-09-19T14:51:49;2.17;;;1.10;;
20743;SDS011;56303;52.160;-0.428;2023-09-19T14:54:18;1.80;;;1.43;;
20743;SDS011;56303;52.160;-0.428;2023-09-19T14:56:45;2.60;;;1.20;;
20743;SDS011;56303;52.160;-0.428;2023-09-19T14:59:12;2.77;;;1.43;;
20743;SDS011;56303;52.160;-0.428;2023-09-19T15:01:39;3.00;;;1.53;;
20743;SDS011;56303;52.160;-0.428;2023-09-19T15:04:07;4.63;;;1.10;;
20743;SDS011;56303;52.160;-0.428;2023-09-19T15:06:35;5.43;;;1.40;;
20743;SDS011;56303;52.160;-0.428;2023-09-19T15:09:02;2.97;;;1.53;;
20743;SDS011;56303;52.160;-0.428;2023-09-19T15:11:31;2.93;;;1.40;;
20743;SDS011;56303;52.160;-0.428;2023-09-19T15:13:58;4.37;;;1.67;;
20743;SDS011;56303;52.160;-0.428;2023-09-19T15:16:25;5.27;;;1.90;;
20743;SDS011;56303;52.160;-0.428;2023-09-19T15:18:53;2.17;;;1.20;;
20743;SDS011;56303;52.160;-0.428;2023-09-19T15:21:21;2.43;;;1.20;;
20743;SDS011;56303;52.160;-0.428;2023-09-19T15:23:49;2.83;;;1.23;;
20743;SDS011;56303;52.160;-0.428;2023-09-19T15:26:16;2.60;;;1.40;;
20743;SDS011;56303;52.160;-0.428;2023-09-19T15:28:47;1.60;;;1.00;;
20743;SDS011;56303;52.160;-0.428;2023-09-19T15:31:16;1.77;;;0.90;;
20743;SDS011;56303;52.160;-0.428;2023-09-19T15:33:43;2.13;;;0.93;;
20743;SDS011;56303;52.160;-0.428;2023-09-19T15:36:10;2.63;;;1.50;;
20743;SDS011;56303;52.160;-0.428;2023-09-19T15:38:58;2.47;;;1.37;;